Time;durP1;ratioP1;P1;durP2;ratioP2;P2;SDS_P1;SDS_P2;PMS_P1;PMS_P2;Temp;Humidity;BMP_temperature;BMP_pressure;BME280_temperature;BME280_humidity;BME280_pressure;Samples;Min_cycle;Max_cycle;Signal;HPM_P1;HPM_P2
2021/12/11 00:00:22;;;;;;;4.47;4.07;;;3.20;99.90;;;3.89;100.00;96521.66;5212831;28;20220;-63
2021/12/11 00:03:00;;;;;;;4.03;3.73;;;3.20;99.90;;;3.94;100.00;96521.16;5227201;28;20210;-63
2021/12/11 00:05:36;;;;;;;3.30;3.10;;;3.10;99.90;;;3.97;100.00;96530.59;5223870;28;20289;-63
2021/12/11 00:08:10;;;;;;;3.13;3.03;;;3.20;99.90;;;3.88;100.00;96527.50;5217309;28;20216;-61
2021/12/11 00:10:48;;;;;;;3.67;3.43;;;3.10;99.90;;;3.72;100.00;96535.78;5220357;28;20710;-63
2021/12/11 00:13:28;;;;;;;4.27;3.97;;;3.10;99.90;;;3.76;100.00;96535.22;5211995;28;20198;-60
2021/12/11 00:16:01;;;;;;;3.63;3.43;;;3.10;99.90;;;3.89;100.00;96536.81;5219803;28;20207;-63
2021/12/11 00:18:35;;;;;;;3.70;3.50;;;3.20;99.90;;;3.90;100.00;96543.66;5214574;28;20221;-63
2021/12/11 00:21:15;;;;;;;3.43;3.23;;;3.20;99.90;;;3.81;100.00;96549.00;5211371;28;20209;-63
2021/12/11 00:23:52;;;;;;;3.37;3.17;;;3.20;99.90;;;3.78;100.00;96549.69;5223262;28;20213;-63
2021/12/11 00:26:31;;;;;;;3.57;3.37;;;3.20;99.90;;;3.86;100.00;96554.34;5223431;28;20555;-63
2021/12/11 00:29:07;;;;;;;3.40;3.20;;;3.20;99.90;;;3.85;100.00;96548.41;5220262;28;20227;-63
2021/12/11 00:31:46;;;;;;;3.40;3.30;;;3.20;99.90;;;3.83;100.00;96552.50;5225350;28;20687;-62
2021/12/11 00:34:23;;;;;;;3.07;2.90;;;3.20;99.90;;;3.84;100.00;96550.06;5206480;28;20574;-62
2021/12/11 00:37:03;;;;;;;3.50;3.30;;;3.20;99.90;;;3.84;100.00;96560.19;5209142;28;20208;-63
2021/12/11 00:39:47;;;;;;;3.20;3.00;;;3.20;99.90;;;3.86;100.00;96555.19;5208542;28;20218;-63
2021/12/11 00:42:24;;;;;;;3.60;3.40;;;3.20;99.90;;;3.75;100.00;96562.16;5224035;28;20203;-63
2021/12/11 00:45:00;;;;;;;3.43;3.23;;;3.20;99.90;;;3.83;100.00;96557.53;5212146;28;20203;-63
2021/12/11 00:47:34;;;;;;;3.33;3.23;;;3.20;99.90;;;3.84;100.00;96569.41;5219367;28;20201;-63
2021/12/11 00:50:11;;;;;;;3.50;3.30;;;3.30;99.90;;;3.81;100.00;96570.09;5214362;28;20222;-63
2021/12/11 00:52:48;;;;;;;3.13;3.03;;;3.40;99.90;;;3.86;100.00;96583.00;5218051;28;20215;-63
2021/12/11 00:55:26;;;;;;;3.70;3.50;;;3.40;99.90;;;3.80;100.00;96588.53;5224917;28;20205;-63
2021/12/11 00:58:08;;;;;;;3.77;3.57;;;3.30;99.90;;;3.90;100.00;96602.66;5224407;28;20640;-63
2021/12/11 01:00:49;;;;;;;3.50;3.30;;;3.30;99.90;;;3.88;100.00;96600.81;5206690;28;20621;-63
2021/12/11 01:03:30;;;;;;;3.60;3.40;;;3.30;99.90;;;3.95;100.00;96618.97;5220044;28;20625;-63
2021/12/11 01:06:19;;;;;;;3.40;3.20;;;3.30;99.90;;;3.90;100.00;96622.88;5217345;28;20670;-63
2021/12/11 01:08:58;;;;;;;4.03;3.67;;;3.30;99.90;;;3.91;100.00;96636.38;5217319;28;20220;-63
2021/12/11 01:11:36;;;;;;;4.20;3.90;;;3.30;99.90;;;3.67;100.00;96646.69;5226160;28;20584;-61
2021/12/11 01:14:20;;;;;;;3.70;3.47;;;3.20;99.90;;;3.70;100.00;96651.06;5218148;28;20202;-63
2021/12/11 01:17:00;;;;;;;3.10;3.00;;;3.10;99.90;;;3.49;100.00;96669.13;5217121;28;20208;-63
2021/12/11 01:19:37;;;;;;;3.10;3.00;;;3.00;99.90;;;3.21;100.00;96675.69;5222533;28;20561;-65
2021/12/11 01:22:31;;;;;;;3.10;3.00;;;2.70;99.90;;;2.91;100.00;96693.06;5225352;28;20296;-66
2021/12/11 01:25:11;;;;;;;3.27;3.17;;;2.50;99.90;;;2.65;100.00;96697.22;5217435;28;20255;-64
2021/12/11 01:27:49;;;;;;;2.87;2.67;;;2.30;99.90;;;2.57;100.00;96710.94;5209653;28;20186;-65
2021/12/11 01:30:26;;;;;;;2.80;2.70;;;2.10;99.90;;;2.53;100.00;96715.69;5218221;28;20231;-64
2021/12/11 01:33:05;;;;;;;2.50;2.40;;;2.00;99.90;;;2.49;100.00;96727.22;5226023;28;20664;-65
2021/12/11 01:35:40;;;;;;;2.93;2.67;;;2.00;99.90;;;2.41;100.00;96735.88;5224565;28;20197;-66
2021/12/11 01:38:17;;;;;;;2.70;2.60;;;1.90;99.90;;;2.29;100.00;96737.53;5218287;28;20665;-65
2021/12/11 01:40:56;;;;;;;3.03;2.83;;;1.80;99.90;;;2.21;100.00;96734.50;5221852;28;20641;-65
2021/12/11 01:43:33;;;;;;;2.87;2.70;;;1.70;99.90;;;2.16;100.00;96746.75;5222467;28;20207;-64
2021/12/11 01:46:08;;;;;;;3.00;2.80;;;1.70;99.90;;;2.14;100.00;96757.50;5208438;28;20197;-66
2021/12/11 01:48:51;;;;;;;2.30;2.20;;;1.60;99.90;;;2.02;100.00;96754.97;5220201;28;20243;-66
2021/12/11 01:51:29;;;;;;;3.00;2.90;;;1.40;99.90;;;1.91;100.00;96771.84;5222844;28;20695;-66
2021/12/11 01:54:13;;;;;;;2.70;2.60;;;1.40;99.90;;;1.81;100.00;96771.97;5208697;28;22134;-65
2021/12/11 01:56:52;;;;;;;3.10;3.00;;;1.40;99.90;;;1.75;100.00;96779.94;5225268;28;20276;-66
2021/12/11 01:59:32;;;;;;;3.60;3.40;;;1.30;99.90;;;1.69;100.00;96776.06;5215392;28;20312;-65
2021/12/11 02:02:10;;;;;;;3.73;3.53;;;1.30;99.90;;;1.69;100.00;96792.09;5216240;28;20208;-63
2021/12/11 02:04:53;;;;;;;3.77;3.57;;;1.20;99.90;;;1.70;100.00;96798.00;5215792;28;20211;-66
2021/12/11 02:07:31;;;;;;;3.23;3.03;;;1.10;99.90;;;1.64;100.00;96802.59;5224985;28;20193;-66
2021/12/11 02:10:13;;;;;;;3.70;3.60;;;1.00;99.90;;;1.51;100.00;96800.78;5223305;28;20316;-66
2021/12/11 02:12:46;;;;;;;4.13;3.90;;;1.00;99.90;;;1.50;100.00;96804.09;5213417;28;20192;-66
2021/12/11 02:15:32;;;;;;;4.10;3.90;;;1.00;99.90;;;1.51;100.00;96814.25;5211916;28;20287;-65
2021/12/11 02:18:13;;;;;;;3.93;3.73;;;1.00;99.90;;;1.54;100.00;96811.97;5220147;28;20679;-67
2021/12/11 02:20:54;;;;;;;4.10;3.90;;;0.90;99.90;;;1.46;100.00;96818.09;5223576;28;20515;-67
2021/12/11 02:23:29;;;;;;;4.27;4.07;;;0.90;99.90;;;1.47;100.00;96822.34;5222889;28;20200;-66
2021/12/11 02:26:13;;;;;;;4.10;3.80;;;0.90;99.90;;;1.47;100.00;96829.91;5210588;28;20192;-64
2021/12/11 02:28:52;;;;;;;4.20;4.00;;;0.90;99.90;;;1.43;100.00;96829.56;5226219;28;20225;-66
2021/12/11 02:31:32;;;;;;;4.10;3.90;;;0.90;99.90;;;1.43;100.00;96837.09;5226885;28;20205;-65
2021/12/11 02:34:10;;;;;;;4.93;4.73;;;0.90;99.90;;;1.52;100.00;96845.38;5208850;28;20565;-66
2021/12/11 02:36:54;;;;;;;4.30;4.10;;;0.90;99.90;;;1.48;100.00;96843.38;5228035;28;20558;-66
2021/12/11 02:39:33;;;;;;;4.40;4.20;;;0.90;99.90;;;1.47;100.00;96846.66;5217574;28;20582;-67
2021/12/11 02:42:18;;;;;;;4.63;4.37;;;0.90;99.90;;;1.46;100.00;96854.94;5225958;28;20204;-66
2021/12/11 02:44:56;;;;;;;4.33;4.13;;;0.90;99.90;;;1.45;100.00;96856.59;5213849;28;20202;-65
2021/12/11 02:47:35;;;;;;;4.50;4.30;;;0.90;99.90;;;1.38;100.00;96863.59;5226696;28;20185;-65
2021/12/11 02:50:16;;;;;;;4.20;4.00;;;0.90;99.90;;;1.36;100.00;96865.97;5228021;28;20221;-65
2021/12/11 02:52:54;;;;;;;4.53;4.33;;;0.90;99.90;;;1.38;100.00;96868.63;5215932;28;20205;-64
2021/12/11 02:55:35;;;;;;;4.87;4.57;;;0.90;99.90;;;1.34;100.00;96875.03;5208995;28;20200;-64
2021/12/11 02:58:14;;;;;;;4.53;4.23;;;0.90;99.90;;;1.35;100.00;96870.13;5229092;28;20220;-64
2021/12/11 03:00:55;;;;;;;4.90;4.60;;;0.90;99.90;;;1.37;100.00;96877.78;5223258;28;20238;-65
2021/12/11 03:03:35;;;;;;;4.53;4.23;;;0.90;99.90;;;1.40;100.00;96879.66;5227657;28;20228;-65
2021/12/11 03:06:18;;;;;;;4.70;4.30;;;0.90;99.90;;;1.43;100.00;96889.97;5226550;28;20197;-65
2021/12/11 03:08:55;;;;;;;4.20;4.00;;;1.00;99.90;;;1.45;100.00;96890.97;5213649;28;20246;-65
2021/12/11 03:11:32;;;;;;;4.30;4.00;;;1.00;99.90;;;1.50;100.00;96894.72;5221634;28;20201;-65
2021/12/11 03:14:12;;;;;;;4.33;4.03;;;1.00;99.90;;;1.51;100.00;96897.34;5228332;28;20588;-65
2021/12/11 03:16:48;;;;;;;4.50;4.10;;;1.10;99.90;;;1.50;100.00;96904.78;5216086;28;20209;-65
2021/12/11 03:19:27;;;;;;;4.73;4.43;;;1.10;99.90;;;1.54;100.00;96911.81;5222608;28;20745;-66
2021/12/11 03:22:04;;;;;;;4.87;4.57;;;1.10;99.90;;;1.53;100.00;96910.94;5222550;28;20193;-65
2021/12/11 03:24:38;;;;;;;4.87;4.57;;;1.10;99.90;;;1.52;100.00;96915.88;5222723;28;20344;-66
2021/12/11 03:27:13;;;;;;;4.67;4.43;;;1.10;99.90;;;1.51;100.00;96922.50;5217592;28;20657;-66
2021/12/11 03:29:47;;;;;;;4.30;4.10;;;1.10;99.90;;;1.54;100.00;96930.28;5216358;28;20235;-65
2021/12/11 03:32:22;;;;;;;4.43;4.17;;;1.10;99.90;;;1.55;100.00;96933.72;5216176;28;20201;-66
2021/12/11 03:34:55;;;;;;;4.90;4.60;;;1.10;99.90;;;1.58;100.00;96939.00;5216912;28;20197;-65
2021/12/11 03:37:28;;;;;;;4.97;4.73;;;1.10;99.90;;;1.56;100.00;96941.38;5217972;28;20197;-65
2021/12/11 03:40:02;;;;;;;4.57;4.37;;;1.20;99.90;;;1.60;100.00;96950.03;5216000;28;20221;-66
2021/12/11 03:42:40;;;;;;;5.77;5.37;;;1.10;99.90;;;1.62;100.00;96950.16;5223710;28;20201;-65
2021/12/11 03:45:18;;;;;;;5.30;4.97;;;1.10;99.90;;;1.64;100.00;96954.56;5209466;28;20206;-65
2021/12/11 03:47:57;;;;;;;5.17;4.87;;;1.20;99.90;;;1.67;100.00;96958.97;5224206;28;20203;-65
2021/12/11 03:50:31;;;;;;;5.20;4.90;;;1.20;99.90;;;1.67;100.00;96969.03;5222432;28;20205;-66
2021/12/11 03:53:05;;;;;;;5.20;4.90;;;1.20;99.90;;;1.68;100.00;96965.75;5218155;28;20212;-66
2021/12/11 03:55:44;;;;;;;6.00;5.60;;;1.20;99.90;;;1.69;100.00;96972.53;5217656;28;20207;-65
2021/12/11 03:58:19;;;;;;;6.30;5.90;;;1.20;99.90;;;1.68;100.00;96981.72;5221962;28;20252;-66
2021/12/11 04:00:58;;;;;;;6.80;6.30;;;1.20;99.90;;;1.64;100.00;96986.44;5218320;28;20200;-66
2021/12/11 04:03:36;;;;;;;6.37;5.97;;;1.20;99.90;;;1.67;100.00;96984.13;5216204;28;20216;-66
2021/12/11 04:06:12;;;;;;;6.83;6.37;;;1.20;99.90;;;1.63;100.00;96990.59;5227796;28;20195;-66
2021/12/11 04:08:48;;;;;;;7.57;7.00;;;1.20;99.90;;;1.59;100.00;97001.16;5222885;28;20232;-66
2021/12/11 04:11:31;;;;;;;8.67;7.87;;;1.10;99.90;;;1.59;100.00;97008.72;5215125;28;20205;-66
2021/12/11 04:14:10;;;;;;;8.63;7.83;;;1.10;99.90;;;1.61;100.00;97019.81;5211713;28;20574;-66
2021/12/11 04:16:45;;;;;;;8.57;7.97;;;1.10;99.90;;;1.60;100.00;97022.19;5222944;28;20200;-65
2021/12/11 04:19:18;;;;;;;9.03;8.23;;;1.10;99.90;;;1.55;100.00;97024.38;5214959;28;20236;-65
2021/12/11 04:21:52;;;;;;;8.67;8.07;;;1.10;99.90;;;1.59;100.00;97031.38;5206795;28;20200;-66
2021/12/11 04:24:30;;;;;;;8.80;8.10;;;1.20;99.90;;;1.61;100.00;97039.94;5227054;28;20201;-65
2021/12/11 04:27:06;;;;;;;9.00;8.30;;;1.20;99.90;;;1.66;100.00;97038.69;5219879;28;20573;-66
2021/12/11 04:29:41;;;;;;;9.60;8.90;;;1.20;99.90;;;1.71;100.00;97044.03;5209632;28;20230;-66
2021/12/11 04:32:15;;;;;;;9.67;8.87;;;1.20;99.90;;;1.72;100.00;97049.22;5223444;28;20220;-66
2021/12/11 04:34:50;;;;;;;9.80;9.00;;;1.30;99.90;;;1.73;100.00;97053.47;5226762;28;20223;-66
2021/12/11 04:37:29;;;;;;;10.40;9.47;;;1.30;99.90;;;1.74;100.00;97059.41;5227116;28;20193;-66
2021/12/11 04:40:11;;;;;;;10.23;9.43;;;1.30;99.90;;;1.77;100.00;97064.66;5220373;28;20213;-66
2021/12/11 04:42:53;;;;;;;10.63;9.80;;;1.30;99.90;;;1.76;100.00;97073.00;5215907;28;20203;-66
2021/12/11 04:45:33;;;;;;;10.53;9.63;;;1.30;99.90;;;1.72;100.00;97076.06;5208318;28;20198;-67
2021/12/11 04:48:17;;;;;;;10.90;9.90;;;1.20;99.90;;;1.63;100.00;97088.81;5222144;28;20644;-66
2021/12/11 04:50:57;;;;;;;10.83;9.93;;;1.20;99.90;;;1.63;100.00;97088.81;5222034;28;20693;-65
2021/12/11 04:53:48;;;;;;;10.03;9.23;;;1.20;99.90;;;1.63;100.00;97093.84;5210315;28;20407;-66
2021/12/11 04:56:55;;;;;;;11.77;10.77;;;1.20;99.90;;;1.70;100.00;97096.06;5214777;28;20207;-66
2021/12/11 04:59:43;;;;;;;10.73;9.87;;;1.30;99.90;;;1.75;100.00;97109.91;5212548;28;20248;-66
2021/12/11 05:02:53;;;;;;;11.27;10.37;;;1.30;99.90;;;1.76;100.00;97109.13;5219553;28;20190;-66
2021/12/11 05:05:44;;;;;;;12.90;11.70;;;1.30;99.90;;;1.76;100.00;97108.25;5215003;28;20199;-66
2021/12/11 05:08:58;;;;;;;13.77;12.47;;;1.30;99.90;;;1.77;100.00;97113.44;5224747;28;20205;-66
2021/12/11 05:11:32;;;;;;;12.90;11.73;;;1.30;99.90;;;1.85;100.00;97120.69;5212114;28;20720;-66
2021/12/11 05:14:07;;;;;;;14.20;12.97;;;1.30;99.90;;;1.87;100.00;97130.13;5223284;28;20200;-65
2021/12/11 05:16:41;;;;;;;14.57;13.30;;;1.30;99.90;;;2.00;100.00;97129.44;5208665;28;20195;-66
2021/12/11 05:19:16;;;;;;;15.63;14.23;;;1.40;99.90;;;1.94;100.00;97141.56;5219900;28;20221;-66
2021/12/11 05:21:49;;;;;;;15.23;13.87;;;1.40;99.90;;;1.98;100.00;97141.06;5220598;28;20207;-66
2021/12/11 05:24:23;;;;;;;14.67;13.47;;;1.40;99.90;;;2.04;100.00;97146.56;5221725;28;20201;-66
2021/12/11 05:26:56;;;;;;;16.60;14.93;;;1.50;99.90;;;1.98;100.00;97156.19;5220563;28;20185;-66
2021/12/11 05:29:30;;;;;;;15.90;14.30;;;1.40;99.90;;;2.02;100.00;97166.59;5214681;28;20228;-65
2021/12/11 05:32:07;;;;;;;16.33;14.83;;;1.50;99.90;;;2.07;100.00;97169.50;5218920;28;20262;-66
2021/12/11 05:34:46;;;;;;;14.37;13.13;;;1.50;99.90;;;2.03;100.00;97183.50;5216073;28;20278;-66
2021/12/11 05:37:19;;;;;;;15.73;14.40;;;1.50;99.90;;;2.04;100.00;97194.44;5217372;28;20195;-66
2021/12/11 05:39:53;;;;;;;17.50;16.00;;;1.50;99.90;;;2.07;100.00;97192.16;5222513;28;20217;-66
2021/12/11 05:42:26;;;;;;;17.47;15.67;;;1.50;99.90;;;2.14;100.00;97201.09;5213011;28;20190;-65
2021/12/11 05:44:59;;;;;;;17.87;16.17;;;1.50;99.90;;;2.17;100.00;97201.31;5209474;28;20200;-66
2021/12/11 05:47:33;;;;;;;17.50;15.87;;;1.60;99.90;;;2.21;100.00;97198.28;5219589;28;20197;-66
2021/12/11 05:50:13;;;;;;;18.23;16.63;;;1.60;99.90;;;2.19;100.00;97208.25;5220089;28;20387;-67
2021/12/11 05:52:48;;;;;;;18.63;16.90;;;1.60;99.90;;;2.20;100.00;97210.03;5205143;28;20224;-67
2021/12/11 05:55:24;;;;;;;18.70;16.90;;;1.60;99.90;;;2.24;100.00;97212.00;5217875;28;20208;-67
2021/12/11 05:58:00;;;;;;;19.17;17.33;;;1.60;99.90;;;2.22;100.00;97221.09;5216641;28;20197;-67
2021/12/11 06:00:39;;;;;;;19.73;17.67;;;1.60;99.90;;;2.24;100.00;97227.13;5216896;28;20201;-67
2021/12/11 06:03:13;;;;;;;17.77;16.17;;;1.60;99.90;;;2.25;100.00;97231.41;5224295;28;20572;-67
2021/12/11 06:05:48;;;;;;;18.67;16.80;;;1.60;99.90;;;2.25;100.00;97236.44;5227928;28;20208;-66
2021/12/11 06:08:21;;;;;;;19.23;17.43;;;1.60;99.90;;;2.18;100.00;97249.34;5228120;28;20220;-66
2021/12/11 06:10:54;;;;;;;17.30;15.70;;;1.60;99.90;;;2.19;100.00;97253.63;5226182;28;20215;-66
2021/12/11 06:13:29;;;;;;;19.90;17.93;;;1.60;99.90;;;2.15;100.00;97259.19;5227851;28;20199;-65
2021/12/11 06:16:05;;;;;;;18.77;16.90;;;1.60;99.90;;;2.18;100.00;97267.00;5229252;28;20671;-66
2021/12/11 06:18:38;;;;;;;16.70;14.97;;;1.60;99.90;;;2.21;100.00;97276.44;5218349;28;20249;-66
2021/12/11 06:21:13;;;;;;;17.40;15.87;;;1.60;99.90;;;2.19;100.00;97273.78;5217441;28;20196;-66
2021/12/11 06:23:46;;;;;;;17.97;16.23;;;1.60;99.90;;;2.16;100.00;97282.75;5227767;28;20579;-65
2021/12/11 06:26:19;;;;;;;16.60;15.00;;;1.60;99.90;;;2.15;100.00;97293.59;5215619;28;20664;-66
2021/12/11 06:28:52;;;;;;;17.17;15.53;;;1.60;99.90;;;2.15;100.00;97299.53;5223634;28;20228;-66
2021/12/11 06:31:26;;;;;;;18.67;16.83;;;1.60;99.90;;;2.19;100.00;97314.13;5215497;28;20698;-66
2021/12/11 06:33:59;;;;;;;17.10;15.50;;;1.60;99.90;;;2.22;100.00;97313.47;5221686;28;20201;-66
2021/12/11 06:36:33;;;;;;;17.63;15.87;;;1.60;99.90;;;2.24;100.00;97322.94;5222078;28;20212;-66
2021/12/11 06:39:12;;;;;;;16.10;14.57;;;1.70;99.90;;;2.27;100.00;97329.00;5217955;28;20218;-66
2021/12/11 06:41:50;;;;;;;15.83;14.20;;;1.70;99.90;;;2.30;100.00;97339.31;5227966;28;20591;-66
2021/12/11 06:44:27;;;;;;;16.27;14.73;;;1.70;99.90;;;2.31;100.00;97343.59;5226516;28;20809;-66
2021/12/11 06:47:03;;;;;;;17.03;15.33;;;1.70;99.90;;;2.34;100.00;97351.41;5222544;28;20216;-66
2021/12/11 06:49:39;;;;;;;19.67;17.57;;;1.70;99.90;;;2.32;100.00;97352.91;5229559;28;20298;-66
2021/12/11 06:52:18;;;;;;;18.30;16.50;;;1.70;99.90;;;2.33;100.00;97360.59;5230254;28;20210;-66
2021/12/11 06:54:53;;;;;;;18.90;17.00;;;1.70;99.90;;;2.33;100.00;97359.72;5216268;28;20205;-66
2021/12/11 06:57:26;;;;;;;18.57;16.40;;;1.70;99.90;;;2.33;100.00;97369.81;5221117;28;20285;-66
2021/12/11 06:59:59;;;;;;;17.03;15.27;;;1.70;99.90;;;2.31;100.00;97376.38;5216747;28;20226;-66
2021/12/11 07:02:32;;;;;;;17.03;15.33;;;1.70;99.90;;;2.33;100.00;97374.88;5227637;28;20181;-66
2021/12/11 07:05:07;;;;;;;18.17;16.27;;;1.70;99.90;;;2.39;100.00;97385.44;5231582;28;20204;-66
2021/12/11 07:07:43;;;;;;;19.90;16.70;;;1.70;99.90;;;2.41;100.00;97399.06;5229271;28;20580;-66
2021/12/11 07:10:19;;;;;;;15.97;14.47;;;1.70;99.90;;;2.39;100.00;97398.03;5219810;28;20228;-66
2021/12/11 07:12:53;;;;;;;18.27;16.40;;;1.70;99.90;;;2.42;100.00;97403.34;5219770;28;20778;-66
2021/12/11 07:15:26;;;;;;;18.33;16.30;;;1.70;99.90;;;2.42;100.00;97410.91;5207339;28;20200;-66
2021/12/11 07:17:59;;;;;;;18.97;17.03;;;1.80;99.90;;;2.45;100.00;97412.03;5217342;28;20233;-66
2021/12/11 07:20:34;;;;;;;19.63;17.53;;;1.80;99.90;;;2.46;100.00;97425.50;5213715;28;20209;-65
2021/12/11 07:23:08;;;;;;;21.13;18.77;;;1.80;99.90;;;2.44;100.00;97422.00;5227813;28;20198;-66
2021/12/11 07:25:47;;;;;;;18.30;16.40;;;1.80;99.90;;;2.43;100.00;97432.81;5222706;28;20202;-66
2021/12/11 07:28:21;;;;;;;19.00;17.00;;;1.80;99.90;;;2.50;100.00;97445.19;5225110;28;20220;-65
2021/12/11 07:30:59;;;;;;;17.87;16.10;;;1.80;99.90;;;2.47;100.00;97455.03;5219998;28;20569;-66
2021/12/11 07:33:33;;;;;;;18.87;16.97;;;1.70;99.90;;;2.42;100.00;97458.81;5207169;28;20220;-67
2021/12/11 07:36:06;;;;;;;19.23;17.17;;;1.80;99.90;;;2.41;100.00;97462.97;5214592;28;20194;-66
2021/12/11 07:38:41;;;;;;;18.47;16.70;;;1.70;99.90;;;2.44;100.00;97465.75;5219133;28;20260;-66
2021/12/11 07:41:16;;;;;;;19.43;17.20;;;1.80;99.90;;;2.44;100.00;97480.00;5217563;28;20207;-65
2021/12/11 07:43:50;;;;;;;19.70;17.57;;;1.80;99.90;;;2.41;100.00;97490.72;5207680;28;20648;-65
2021/12/11 07:46:26;;;;;;;19.47;17.50;;;1.80;99.90;;;2.47;100.00;97496.25;5223621;28;20572;-65
2021/12/11 07:49:00;;;;;;;19.73;17.73;;;1.70;99.90;;;2.53;100.00;97498.41;5210954;28;20278;-64
2021/12/11 07:51:36;;;;;;;20.50;18.40;;;1.80;99.90;;;2.54;100.00;97507.72;5218832;28;20205;-65
2021/12/11 07:54:11;;;;;;;20.93;18.63;;;1.80;99.90;;;2.56;100.00;97515.44;5221866;28;20556;-65
2021/12/11 07:56:44;;;;;;;19.80;17.70;;;1.80;99.90;;;2.59;100.00;97515.69;5222386;28;20185;-65
2021/12/11 07:59:17;;;;;;;19.80;17.73;;;1.80;99.90;;;2.63;100.00;97510.13;5226750;28;20225;-65
2021/12/11 08:01:53;;;;;;;22.93;19.93;;;1.90;99.90;;;2.60;100.00;97522.47;5219008;28;20197;-64
2021/12/11 08:04:26;;;;;;;22.70;19.70;;;1.80;99.90;;;2.60;100.00;97532.56;5222142;28;20194;-65
2021/12/11 08:07:00;;;;;;;23.87;19.43;;;1.90;99.90;;;2.57;100.00;97538.25;5216069;28;20723;-65
2021/12/11 08:09:35;;;;;;;19.73;17.73;;;1.90;99.90;;;2.60;100.00;97548.59;5209734;28;20227;-64
2021/12/11 08:12:09;;;;;;;23.27;20.47;;;1.90;99.90;;;2.62;100.00;97552.13;5220554;28;20596;-66
2021/12/11 08:14:44;;;;;;;21.63;18.77;;;1.90;99.90;;;2.64;100.00;97557.31;5212376;28;20213;-65
2021/12/11 08:17:17;;;;;;;22.63;20.20;;;1.90;99.90;;;2.72;100.00;97561.34;5221403;28;20657;-63
2021/12/11 08:19:50;;;;;;;24.93;20.77;;;2.00;99.90;;;2.76;100.00;97570.03;5223033;28;20233;-65
2021/12/11 08:22:23;;;;;;;24.03;21.53;;;2.00;99.90;;;2.70;100.00;97572.94;5219293;28;20211;-65
2021/12/11 08:24:58;;;;;;;23.67;21.17;;;2.00;99.90;;;2.66;100.00;97586.97;5217893;28;20759;-65
2021/12/11 08:27:31;;;;;;;21.07;18.70;;;2.00;99.90;;;2.68;100.00;97592.13;5214506;28;20201;-65
2021/12/11 08:30:07;;;;;;;23.40;20.90;;;2.00;99.90;;;2.71;100.00;97590.72;5219990;28;20217;-64
2021/12/11 08:32:41;;;;;;;21.17;18.97;;;2.00;99.90;;;2.73;100.00;97602.59;5222002;28;20304;-65
2021/12/11 08:35:15;;;;;;;22.47;19.90;;;2.00;99.90;;;2.75;100.00;97606.09;5215170;28;20563;-65
2021/12/11 08:37:51;;;;;;;19.57;17.47;;;2.00;99.90;;;2.68;100.00;97612.28;5218037;28;20633;-64
2021/12/11 08:40:31;;;;;;;23.90;19.43;;;2.00;99.90;;;2.63;100.00;97627.06;5219262;28;20225;-64
2021/12/11 08:43:09;;;;;;;26.90;20.83;;;2.00;99.90;;;2.66;100.00;97627.31;5220321;28;20220;-64
2021/12/11 08:45:48;;;;;;;26.70;21.50;;;2.00;99.90;;;2.76;100.00;97635.66;5214173;28;20568;-64
2021/12/11 08:48:27;;;;;;;24.33;21.33;;;2.00;99.90;;;2.71;100.00;97642.81;5217337;28;20318;-64
2021/12/11 08:51:07;;;;;;;23.33;20.20;;;2.00;99.90;;;2.74;100.00;97639.69;5218767;28;20193;-64
2021/12/11 08:53:41;;;;;;;26.80;23.80;;;2.10;99.90;;;2.78;100.00;97639.19;5221499;28;20224;-64
2021/12/11 08:56:17;;;;;;;29.33;23.53;;;2.00;99.90;;;2.77;100.00;97647.50;5222765;28;20255;-64
2021/12/11 08:58:52;;;;;;;31.73;24.63;;;2.00;99.90;;;2.71;100.00;97653.78;5209567;28;20225;-64
2021/12/11 09:01:33;;;;;;;29.07;23.27;;;2.00;99.90;;;2.74;100.00;97653.16;5220285;28;20185;-64
2021/12/11 09:04:12;;;;;;;32.00;24.90;;;2.10;99.90;;;2.78;100.00;97659.38;5223168;28;20652;-64
2021/12/11 09:06:52;;;;;;;30.70;24.47;;;2.10;99.90;;;2.77;100.00;97662.63;5218191;28;20675;-64
2021/12/11 09:09:29;;;;;;;30.37;24.30;;;2.10;99.90;;;2.74;100.00;97662.38;5211096;28;20222;-64
2021/12/11 09:12:09;;;;;;;29.10;24.57;;;2.10;99.90;;;2.80;100.00;97667.94;5217483;28;20218;-64
2021/12/11 09:14:49;;;;;;;34.77;26.90;;;2.10;99.90;;;2.81;100.00;97675.66;5222050;28;20223;-64
2021/12/11 09:17:27;;;;;;;30.47;25.57;;;2.10;99.90;;;2.80;100.00;97688.13;5214983;28;20210;-64
2021/12/11 09:20:07;;;;;;;31.47;24.63;;;2.10;99.90;;;2.77;100.00;97690.41;5224200;28;20276;-64
2021/12/11 09:22:46;;;;;;;28.23;23.23;;;2.10;99.90;;;2.81;100.00;97695.84;5221463;28;20655;-63
2021/12/11 09:25:27;;;;;;;34.30;26.27;;;2.20;99.90;;;2.88;100.00;97708.22;5212416;28;20207;-64
2021/12/11 09:28:15;;;;;;;39.50;30.10;;;2.20;99.90;;;2.88;100.00;97705.69;5216647;28;20214;-63
2021/12/11 09:30:53;;;;;;;34.30;27.33;;;2.10;99.90;;;2.97;100.00;97713.13;5219425;28;20570;-63
2021/12/11 09:33:32;;;;;;;37.23;28.43;;;2.10;99.90;;;2.97;100.00;97722.34;5220105;28;20498;-64
2021/12/11 09:36:10;;;;;;;38.70;31.43;;;2.10;99.90;;;2.80;100.00;97731.91;5208773;28;20577;-64
2021/12/11 09:38:51;;;;;;;36.17;30.40;;;2.10;99.90;;;2.91;100.00;97725.25;5212459;28;20228;-63
2021/12/11 09:41:24;;;;;;;36.63;28.97;;;2.10;99.90;;;2.97;100.00;97733.34;5217499;28;20420;-64
2021/12/11 09:44:03;;;;;;;38.67;28.23;;;2.10;99.90;;;2.91;100.00;97732.81;5222514;28;20202;-64
2021/12/11 09:46:42;;;;;;;32.17;26.80;;;2.20;99.90;;;2.92;100.00;97739.66;5212314;28;20215;-64
2021/12/11 09:49:20;;;;;;;30.97;25.67;;;2.20;99.90;;;2.88;100.00;97743.53;5207620;28;20232;-63
2021/12/11 09:52:03;;;;;;;33.87;24.83;;;2.20;99.90;;;2.90;100.00;97752.13;5223841;28;20226;-65
2021/12/11 09:54:36;;;;;;;28.80;25.10;;;2.20;99.90;;;2.93;100.00;97757.44;5215531;28;20217;-64
2021/12/11 09:57:14;;;;;;;32.80;26.63;;;2.20;99.90;;;2.95;100.00;97760.09;5215910;28;20577;-65
2021/12/11 09:59:53;;;;;;;38.53;28.00;;;2.30;99.90;;;2.99;100.00;97766.28;5218266;28;20228;-65
2021/12/11 10:02:30;;;;;;;37.27;28.97;;;2.30;99.90;;;2.93;100.00;97761.59;5210841;28;20198;-65
2021/12/11 10:05:19;;;;;;;35.53;29.23;;;2.30;99.90;;;3.00;100.00;97773.09;5211176;28;20282;-64
2021/12/11 10:08:03;;;;;;;41.87;30.80;;;2.30;99.90;;;3.06;100.00;97764.41;5215757;28;20663;-64
2021/12/11 10:10:37;;;;;;;36.67;28.07;;;2.30;99.90;;;3.08;100.00;97775.50;5208674;28;20807;-64
2021/12/11 10:13:10;;;;;;;37.77;30.40;;;2.30;99.90;;;3.04;100.00;97778.53;5203610;28;20231;-64
2021/12/11 10:15:45;;;;;;;36.77;29.33;;;2.30;99.90;;;3.04;100.00;97776.03;5221211;28;20575;-64
2021/12/11 10:18:24;;;;;;;36.43;29.03;;;2.30;99.90;;;3.09;100.00;97778.91;5219196;28;20201;-64
2021/12/11 10:21:02;;;;;;;32.73;26.93;;;2.40;99.90;;;3.11;100.00;97785.88;5207372;28;20241;-64
2021/12/11 10:23:40;;;;;;;40.90;32.27;;;2.40;99.90;;;3.13;100.00;97791.94;5218526;28;20549;-63
2021/12/11 10:26:16;;;;;;;36.20;28.93;;;2.40;99.90;;;3.20;100.00;97792.44;5221965;28;20197;-64
2021/12/11 10:28:56;;;;;;;34.33;28.63;;;2.40;99.90;;;3.21;100.00;97789.19;5215753;28;20660;-64
2021/12/11 10:31:35;;;;;;;38.70;31.20;;;2.40;99.90;;;3.17;100.00;97799.00;5215502;28;20208;-64
2021/12/11 10:34:16;;;;;;;38.50;30.20;;;2.50;99.90;;;3.23;100.00;97800.28;5219926;28;20295;-64
2021/12/11 10:36:54;;;;;;;37.90;29.27;;;2.50;99.90;;;3.21;100.00;97797.66;5219935;28;20201;-65
2021/12/11 10:39:28;;;;;;;30.97;26.27;;;2.50;99.90;;;3.21;100.00;97805.22;5213058;28;20235;-64
2021/12/11 10:42:02;;;;;;;32.27;26.57;;;2.50;99.90;;;3.25;100.00;97801.31;5218110;28;20199;-64
2021/12/11 10:44:40;;;;;;;29.63;25.73;;;2.50;99.90;;;3.29;100.00;97810.88;5220286;28;20207;-64
2021/12/11 10:47:19;;;;;;;34.00;27.77;;;2.60;99.90;;;3.23;100.00;97817.97;5221729;28;20505;-65
2021/12/11 10:50:20;;;;;;;35.10;29.20;;;2.50;99.90;;;3.17;100.00;97820.84;5218694;28;20217;-64
2021/12/11 10:52:55;;;;;;;32.07;26.70;;;2.40;99.90;;;3.20;100.00;97813.53;5221410;28;20235;-65
2021/12/11 10:55:32;;;;;;;36.33;28.73;;;2.50;99.90;;;3.22;100.00;97822.13;5216439;28;20223;-65
2021/12/11 10:58:13;;;;;;;35.50;29.30;;;2.50;99.90;;;3.25;100.00;97821.50;5225720;28;20200;-65
2021/12/11 11:00:52;;;;;;;40.97;31.77;;;2.50;99.90;;;3.29;100.00;97826.03;5221395;28;20196;-64